sensor_id;sensor_type;location;lat;lon;timestamp;P1;durP1;ratioP1;P2;durP2;ratioP2
14030;SDS011;7090;49.436;8.490;2023-05-10T00:01:57;1.73;;;1.67;;
14030;SDS011;7090;49.436;8.490;2023-05-10T00:04:23;2.30;;;2.20;;
14030;SDS011;7090;49.436;8.490;2023-05-10T00:06:52;1.70;;;1.70;;
14030;SDS011;7090;49.436;8.490;2023-05-10T00:09:18;1.80;;;1.70;;
14030;SDS011;7090;49.436;8.490;2023-05-10T00:11:43;2.15;;;2.05;;
14030;SDS011;7090;49.436;8.490;2023-05-10T00:14:09;6.30;;;2.10;;
14030;SDS011;7090;49.436;8.490;2023-05-10T00:16:34;1.90;;;1.80;;
14030;SDS011;7090;49.436;8.490;2023-05-10T00:19:00;1.70;;;1.70;;
14030;SDS011;7090;49.436;8.490;2023-05-10T00:21:25;2.13;;;2.03;;
14030;SDS011;7090;49.436;8.490;2023-05-10T00:23:53;2.80;;;2.60;;
14030;SDS011;7090;49.436;8.490;2023-05-10T00:26:18;2.63;;;2.53;;
14030;SDS011;7090;49.436;8.490;2023-05-10T00:28:44;3.13;;;2.93;;
14030;SDS011;7090;49.436;8.490;2023-05-10T00:31:10;2.27;;;2.17;;
14030;SDS011;7090;49.436;8.490;2023-05-10T00:33:36;2.03;;;2.03;;
14030;SDS011;7090;49.436;8.490;2023-05-10T00:36:01;2.27;;;2.17;;
14030;SDS011;7090;49.436;8.490;2023-05-10T00:38:27;2.17;;;2.17;;
14030;SDS011;7090;49.436;8.490;2023-05-10T00:40:52;2.60;;;2.40;;
14030;SDS011;7090;49.436;8.490;2023-05-10T00:43:18;2.37;;;2.27;;
14030;SDS011;7090;49.436;8.490;2023-05-10T00:45:44;2.50;;;2.40;;
14030;SDS011;7090;49.436;8.490;2023-05-10T00:48:09;2.70;;;2.50;;
14030;SDS011;7090;49.436;8.490;2023-05-10T00:50:35;2.30;;;2.10;;
14030;SDS011;7090;49.436;8.490;2023-05-10T00:53:01;7.20;;;1.97;;
14030;SDS011;7090;49.436;8.490;2023-05-10T00:55:28;2.20;;;2.10;;
14030;SDS011;7090;49.436;8.490;2023-05-10T00:57:53;2.20;;;2.10;;
14030;SDS011;7090;49.436;8.490;2023-05-10T01:00:19;2.20;;;2.10;;
14030;SDS011;7090;49.436;8.490;2023-05-10T01:02:45;1.93;;;1.93;;
14030;SDS011;7090;49.436;8.490;2023-05-10T01:05:11;2.07;;;2.03;;
14030;SDS011;7090;49.436;8.490;2023-05-10T01:07:37;2.70;;;2.60;;
14030;SDS011;7090;49.436;8.490;2023-05-10T01:10:03;2.60;;;2.50;;
14030;SDS011;7090;49.436;8.490;2023-05-10T01:12:30;2.40;;;2.30;;
14030;SDS011;7090;49.436;8.490;2023-05-10T01:14:56;2.27;;;2.17;;
14030;SDS011;7090;49.436;8.490;2023-05-10T01:17:23;2.37;;;2.30;;
14030;SDS011;7090;49.436;8.490;2023-05-10T01:19:49;2.50;;;2.40;;
14030;SDS011;7090;49.436;8.490;2023-05-10T01:25:11;2.80;;;2.70;;
14030;SDS011;7090;49.436;8.490;2023-05-10T01:35:54;2.90;;;2.80;;
14030;SDS011;7090;49.436;8.490;2023-05-10T01:41:13;3.10;;;3.00;;
14030;SDS011;7090;49.436;8.490;2023-05-10T01:46:44;3.40;;;3.30;;
14030;SDS011;7090;49.436;8.490;2023-05-10T01:49:15;3.40;;;3.30;;
14030;SDS011;7090;49.436;8.490;2023-05-10T01:52:00;3.93;;;3.73;;
14030;SDS011;7090;49.436;8.490;2023-05-10T01:54:31;3.60;;;3.50;;
14030;SDS011;7090;49.436;8.490;2023-05-10T01:57:00;3.70;;;3.60;;
14030;SDS011;7090;49.436;8.490;2023-05-10T01:59:30;4.37;;;4.17;;
14030;SDS011;7090;49.436;8.490;2023-05-10T02:02:01;3.70;;;3.60;;
14030;SDS011;7090;49.436;8.490;2023-05-10T02:04:29;3.60;;;3.50;;
14030;SDS011;7090;49.436;8.490;2023-05-10T02:06:56;3.50;;;3.40;;
14030;SDS011;7090;49.436;8.490;2023-05-10T02:09:22;4.10;;;4.00;;
14030;SDS011;7090;49.436;8.490;2023-05-10T02:11:50;3.73;;;3.63;;
14030;SDS011;7090;49.436;8.490;2023-05-10T02:14:17;3.47;;;3.37;;
14030;SDS011;7090;49.436;8.490;2023-05-10T02:16:44;3.20;;;3.10;;
14030;SDS011;7090;49.436;8.490;2023-05-10T02:19:11;3.50;;;3.30;;
14030;SDS011;7090;49.436;8.490;2023-05-10T02:21:39;3.50;;;3.40;;
14030;SDS011;7090;49.436;8.490;2023-05-10T02:24:05;3.50;;;3.40;;
14030;SDS011;7090;49.436;8.490;2023-05-10T02:26:31;3.30;;;3.20;;
14030;SDS011;7090;49.436;8.490;2023-05-10T02:29:00;3.00;;;2.90;;
14030;SDS011;7090;49.436;8.490;2023-05-10T02:31:28;29.40;;;3.80;;
14030;SDS011;7090;49.436;8.490;2023-05-10T02:33:55;3.10;;;3.00;;
14030;SDS011;7090;49.436;8.490;2023-05-10T02:36:23;2.93;;;2.83;;
14030;SDS011;7090;49.436;8.490;2023-05-10T02:38:49;3.23;;;3.13;;
14030;SDS011;7090;49.436;8.490;2023-05-10T02:41:16;3.30;;;3.20;;
14030;SDS011;7090;49.436;8.490;2023-05-10T02:43:44;4.00;;;3.80;;
14030;SDS011;7090;49.436;8.490;2023-05-10T02:46:12;3.30;;;3.20;;
14030;SDS011;7090;49.436;8.490;2023-05-10T02:48:37;3.20;;;3.10;;
14030;SDS011;7090;49.436;8.490;2023-05-10T02:51:04;3.20;;;3.10;;
14030;SDS011;7090;49.436;8.490;2023-05-10T02:53:33;3.30;;;3.20;;
14030;SDS011;7090;49.436;8.490;2023-05-10T02:56:04;3.00;;;2.90;;
14030;SDS011;7090;49.436;8.490;2023-05-10T02:58:33;3.10;;;3.00;;
14030;SDS011;7090;49.436;8.490;2023-05-10T03:00:59;3.67;;;3.57;;
14030;SDS011;7090;49.436;8.490;2023-05-10T03:03:25;3.20;;;3.10;;
14030;SDS011;7090;49.436;8.490;2023-05-10T03:05:51;3.90;;;3.70;;
14030;SDS011;7090;49.436;8.490;2023-05-10T03:08:20;3.43;;;3.33;;
14030;SDS011;7090;49.436;8.490;2023-05-10T03:16:57;3.87;;;3.67;;
14030;SDS011;7090;49.436;8.490;2023-05-10T03:22:24;3.17;;;3.07;;
14030;SDS011;7090;49.436;8.490;2023-05-10T03:24:56;2.90;;;2.80;;
14030;SDS011;7090;49.436;8.490;2023-05-10T03:27:23;2.93;;;2.83;;
14030;SDS011;7090;49.436;8.490;2023-05-10T03:29:51;3.43;;;3.33;;
14030;SDS011;7090;49.436;8.490;2023-05-10T03:32:17;2.90;;;2.80;;
14030;SDS011;7090;49.436;8.490;2023-05-10T03:34:43;3.00;;;2.90;;
14030;SDS011;7090;49.436;8.490;2023-05-10T03:37:09;3.33;;;3.23;;
14030;SDS011;7090;49.436;8.490;2023-05-10T03:39:34;3.10;;;3.00;;
14030;SDS011;7090;49.436;8.490;2023-05-10T03:42:01;3.60;;;3.50;;
14030;SDS011;7090;49.436;8.490;2023-05-10T03:44:26;3.83;;;3.63;;
14030;SDS011;7090;49.436;8.490;2023-05-10T03:46:52;3.70;;;3.60;;
14030;SDS011;7090;49.436;8.490;2023-05-10T03:49:18;3.80;;;3.70;;
14030;SDS011;7090;49.436;8.490;2023-05-10T03:51:43;4.80;;;4.60;;
14030;SDS011;7090;49.436;8.490;2023-05-10T03:54:09;4.80;;;4.60;;
14030;SDS011;7090;49.436;8.490;2023-05-10T03:56:34;4.40;;;4.20;;
14030;SDS011;7090;49.436;8.490;2023-05-10T03:59:00;4.60;;;4.40;;
14030;SDS011;7090;49.436;8.490;2023-05-10T04:01:26;4.30;;;4.10;;
14030;SDS011;7090;49.436;8.490;2023-05-10T04:03:52;3.90;;;3.80;;
14030;SDS011;7090;49.436;8.490;2023-05-10T04:06:17;3.90;;;3.80;;
14030;SDS011;7090;49.436;8.490;2023-05-10T04:08:43;3.90;;;3.80;;
14030;SDS011;7090;49.436;8.490;2023-05-10T04:11:09;4.70;;;4.40;;
14030;SDS011;7090;49.436;8.490;2023-05-10T04:13:36;4.57;;;4.37;;
14030;SDS011;7090;49.436;8.490;2023-05-10T04:16:02;4.33;;;4.03;;
14030;SDS011;7090;49.436;8.490;2023-05-10T04:18:27;3.60;;;3.43;;
14030;SDS011;7090;49.436;8.490;2023-05-10T04:20:53;3.90;;;3.70;;
14030;SDS011;7090;49.436;8.490;2023-05-10T04:23:19;4.03;;;3.70;;
14030;SDS011;7090;49.436;8.490;2023-05-10T04:25:44;3.73;;;3.53;;
14030;SDS011;7090;49.436;8.490;2023-05-10T04:28:10;3.80;;;3.50;;
14030;SDS011;7090;49.436;8.490;2023-05-10T04:30:35;3.70;;;3.50;;
14030;SDS011;7090;49.436;8.490;2023-05-10T04:33:01;4.93;;;3.43;;
14030;SDS011;7090;49.436;8.490;2023-05-10T04:35:27;3.03;;;2.93;;
14030;SDS011;7090;49.436;8.490;2023-05-10T04:37:53;3.00;;;2.90;;
14030;SDS011;7090;49.436;8.490;2023-05-10T04:40:19;2.77;;;2.67;;
14030;SDS011;7090;49.436;8.490;2023-05-10T04:42:45;2.75;;;2.65;;
14030;SDS011;7090;49.436;8.490;2023-05-10T04:45:11;2.90;;;2.80;;
14030;SDS011;7090;49.436;8.490;2023-05-10T04:47:36;2.97;;;2.77;;
14030;SDS011;7090;49.436;8.490;2023-05-10T04:50:03;3.50;;;3.20;;
14030;SDS011;7090;49.436;8.490;2023-05-10T04:52:29;2.87;;;2.77;;
14030;SDS011;7090;49.436;8.490;2023-05-10T04:54:54;2.23;;;2.23;;
14030;SDS011;7090;49.436;8.490;2023-05-10T04:57:20;2.60;;;2.50;;
14030;SDS011;7090;49.436;8.490;2023-05-10T04:59:46;2.80;;;2.70;;
14030;SDS011;7090;49.436;8.490;2023-05-10T05:02:12;2.90;;;2.80;;
14030;SDS011;7090;49.436;8.490;2023-05-10T05:04:38;2.90;;;2.80;;
14030;SDS011;7090;49.436;8.490;2023-05-10T05:07:03;2.70;;;2.60;;
14030;SDS011;7090;49.436;8.490;2023-05-10T05:09:30;2.90;;;2.80;;
14030;SDS011;7090;49.436;8.490;2023-05-10T05:11:57;3.17;;;3.07;;
14030;SDS011;7090;49.436;8.490;2023-05-10T05:14:23;4.00;;;3.80;;
14030;SDS011;7090;49.436;8.490;2023-05-10T05:16:50;4.15;;;3.95;;
14030;SDS011;7090;49.436;8.490;2023-05-10T05:19:16;4.77;;;4.47;;
14030;SDS011;7090;49.436;8.490;2023-05-10T05:21:41;3.70;;;3.60;;
14030;SDS011;7090;49.436;8.490;2023-05-10T05:24:07;4.17;;;3.87;;
14030;SDS011;7090;49.436;8.490;2023-05-10T05:26:33;3.77;;;3.57;;
14030;SDS011;7090;49.436;8.490;2023-05-10T05:28:59;4.67;;;4.37;;
14030;SDS011;7090;49.436;8.490;2023-05-10T05:31:24;4.43;;;4.23;;
14030;SDS011;7090;49.436;8.490;2023-05-10T05:33:50;3.73;;;3.53;;
14030;SDS011;7090;49.436;8.490;2023-05-10T05:36:16;3.10;;;3.00;;
14030;SDS011;7090;49.436;8.490;2023-05-10T05:38:41;2.90;;;2.80;;
14030;SDS011;7090;49.436;8.490;2023-05-10T05:41:08;4.63;;;4.33;;
14030;SDS011;7090;49.436;8.490;2023-05-10T05:43:33;3.20;;;3.10;;
14030;SDS011;7090;49.436;8.490;2023-05-10T05:45:59;3.10;;;3.00;;
14030;SDS011;7090;49.436;8.490;2023-05-10T05:48:24;3.70;;;3.50;;
14030;SDS011;7090;49.436;8.490;2023-05-10T05:50:50;3.37;;;3.27;;
14030;SDS011;7090;49.436;8.490;2023-05-10T05:53:20;2.85;;;2.75;;
14030;SDS011;7090;49.436;8.490;2023-05-10T05:55:55;3.35;;;3.25;;
14030;SDS011;7090;49.436;8.490;2023-05-10T05:58:22;3.90;;;3.80;;
14030;SDS011;7090;49.436;8.490;2023-05-10T06:00:49;4.27;;;4.07;;
14030;SDS011;7090;49.436;8.490;2023-05-10T06:03:15;3.43;;;3.33;;
14030;SDS011;7090;49.436;8.490;2023-05-10T06:05:41;4.35;;;4.15;;
14030;SDS011;7090;49.436;8.490;2023-05-10T06:08:06;5.22;;;4.93;;
14030;SDS011;7090;49.436;8.490;2023-05-10T06:10:32;3.53;;;3.43;;
14030;SDS011;7090;49.436;8.490;2023-05-10T06:12:57;3.67;;;3.57;;
14030;SDS011;7090;49.436;8.490;2023-05-10T06:15:23;5.07;;;4.73;;
14030;SDS011;7090;49.436;8.490;2023-05-10T06:17:48;5.80;;;5.22;;
14030;SDS011;7090;49.436;8.490;2023-05-10T06:20:14;11.32;;;5.55;;
14030;SDS011;7090;49.436;8.490;2023-05-10T06:22:40;5.15;;;4.85;;
14030;SDS011;7090;49.436;8.490;2023-05-10T06:25:06;4.18;;;3.97;;
14030;SDS011;7090;49.436;8.490;2023-05-10T06:27:32;4.32;;;4.13;;
14030;SDS011;7090;49.436;8.490;2023-05-10T06:29:58;3.63;;;3.53;;
14030;SDS011;7090;49.436;8.490;2023-05-10T06:32:24;4.50;;;4.10;;
14030;SDS011;7090;49.436;8.490;2023-05-10T06:34:49;4.37;;;4.17;;
14030;SDS011;7090;49.436;8.490;2023-05-10T06:37:15;4.83;;;4.43;;
14030;SDS011;7090;49.436;8.490;2023-05-10T06:39:40;3.75;;;3.63;;
14030;SDS011;7090;49.436;8.490;2023-05-10T06:42:06;4.18;;;3.90;;
14030;SDS011;7090;49.436;8.490;2023-05-10T06:44:32;4.70;;;4.47;;
14030;SDS011;7090;49.436;8.490;2023-05-10T06:46:57;4.50;;;4.28;;
14030;SDS011;7090;49.436;8.490;2023-05-10T06:49:23;5.55;;;5.15;;
14030;SDS011;7090;49.436;8.490;2023-05-10T06:51:48;3.50;;;3.40;;
14030;SDS011;7090;49.436;8.490;2023-05-10T06:54:14;3.70;;;3.60;;
14030;SDS011;7090;49.436;8.490;2023-05-10T06:56:39;4.63;;;4.35;;
14030;SDS011;7090;49.436;8.490;2023-05-10T06:59:05;3.75;;;3.63;;
14030;SDS011;7090;49.436;8.490;2023-05-10T07:01:31;4.88;;;4.60;;
14030;SDS011;7090;49.436;8.490;2023-05-10T07:03:57;4.57;;;4.28;;
14030;SDS011;7090;49.436;8.490;2023-05-10T07:06:22;4.18;;;3.97;;
14030;SDS011;7090;49.436;8.490;2023-05-10T07:08:48;4.03;;;3.92;;
14030;SDS011;7090;49.436;8.490;2023-05-10T07:11:13;5.15;;;4.80;;
14030;SDS011;7090;49.436;8.490;2023-05-10T07:13:39;4.55;;;4.35;;
14030;SDS011;7090;49.436;8.490;2023-05-10T07:16:08;4.32;;;4.13;;
14030;SDS011;7090;49.436;8.490;2023-05-10T07:18:35;4.80;;;4.40;;
14030;SDS011;7090;49.436;8.490;2023-05-10T07:21:00;4.80;;;4.60;;
14030;SDS011;7090;49.436;8.490;2023-05-10T07:23:26;5.63;;;5.25;;
14030;SDS011;7090;49.436;8.490;2023-05-10T07:25:52;6.15;;;5.65;;
14030;SDS011;7090;49.436;8.490;2023-05-10T07:28:18;4.30;;;4.18;;
14030;SDS011;7090;49.436;8.490;2023-05-10T07:30:44;5.35;;;4.95;;
14030;SDS011;7090;49.436;8.490;2023-05-10T07:33:11;4.90;;;4.70;;
14030;SDS011;7090;49.436;8.490;2023-05-10T07:35:38;5.50;;;5.10;;
14030;SDS011;7090;49.436;8.490;2023-05-10T07:38:04;5.15;;;4.95;;
14030;SDS011;7090;49.436;8.490;2023-05-10T07:40:30;5.50;;;5.20;;
14030;SDS011;7090;49.436;8.490;2023-05-10T07:42:55;5.97;;;5.68;;
14030;SDS011;7090;49.436;8.490;2023-05-10T07:45:21;5.05;;;4.85;;
14030;SDS011;7090;49.436;8.490;2023-05-10T07:47:47;5.28;;;4.97;;
14030;SDS011;7090;49.436;8.490;2023-05-10T07:50:13;4.38;;;4.25;;
14030;SDS011;7090;49.436;8.490;2023-05-10T07:52:39;4.97;;;4.78;;
14030;SDS011;7090;49.436;8.490;2023-05-10T07:55:05;5.80;;;5.50;;
14030;SDS011;7090;49.436;8.490;2023-05-10T07:57:32;6.00;;;5.80;;
14030;SDS011;7090;49.436;8.490;2023-05-10T08:00:01;6.40;;;6.10;;
14030;SDS011;7090;49.436;8.490;2023-05-10T08:02:27;5.80;;;5.60;;
14030;SDS011;7090;49.436;8.490;2023-05-10T08:04:53;6.27;;;6.07;;
14030;SDS011;7090;49.436;8.490;2023-05-10T08:07:18;5.78;;;5.57;;
14030;SDS011;7090;49.436;8.490;2023-05-10T08:09:44;6.85;;;6.30;;
14030;SDS011;7090;49.436;8.490;2023-05-10T08:12:10;5.57;;;5.38;;
14030;SDS011;7090;49.436;8.490;2023-05-10T08:14:35;6.60;;;6.38;;
14030;SDS011;7090;49.436;8.490;2023-05-10T08:17:04;6.53;;;6.25;;
14030;SDS011;7090;49.436;8.490;2023-05-10T08:19:30;5.82;;;5.63;;
14030;SDS011;7090;49.436;8.490;2023-05-10T08:21:55;6.10;;;5.90;;
14030;SDS011;7090;49.436;8.490;2023-05-10T08:24:22;5.97;;;5.78;;
14030;SDS011;7090;49.436;8.490;2023-05-10T08:26:47;8.18;;;6.30;;
14030;SDS011;7090;49.436;8.490;2023-05-10T08:29:13;6.10;;;5.70;;
14030;SDS011;7090;49.436;8.490;2023-05-10T08:31:39;6.20;;;5.90;;
14030;SDS011;7090;49.436;8.490;2023-05-10T08:34:05;6.25;;;5.93;;
14030;SDS011;7090;49.436;8.490;2023-05-10T08:36:31;6.18;;;5.88;;
14030;SDS011;7090;49.436;8.490;2023-05-10T08:38:57;6.22;;;5.72;;
14030;SDS011;7090;49.436;8.490;2023-05-10T08:41:23;5.80;;;5.50;;
14030;SDS011;7090;49.436;8.490;2023-05-10T08:43:50;5.32;;;5.13;;
14030;SDS011;7090;49.436;8.490;2023-05-10T08:46:17;6.28;;;5.97;;
14030;SDS011;7090;49.436;8.490;2023-05-10T08:48:45;5.70;;;5.50;;
14030;SDS011;7090;49.436;8.490;2023-05-10T08:51:19;5.60;;;5.40;;
14030;SDS011;7090;49.436;8.490;2023-05-10T08:53:48;5.85;;;5.55;;
14030;SDS011;7090;49.436;8.490;2023-05-10T08:56:15;5.60;;;5.40;;
14030;SDS011;7090;49.436;8.490;2023-05-10T08:58:42;6.10;;;5.80;;
14030;SDS011;7090;49.436;8.490;2023-05-10T09:01:08;5.85;;;5.65;;
14030;SDS011;7090;49.436;8.490;2023-05-10T09:03:35;6.20;;;5.90;;
14030;SDS011;7090;49.436;8.490;2023-05-10T09:06:06;6.25;;;5.93;;
14030;SDS011;7090;49.436;8.490;2023-05-10T09:08:32;5.75;;;5.55;;
14030;SDS011;7090;49.436;8.490;2023-05-10T09:10:58;6.57;;;6.28;;
14030;SDS011;7090;49.436;8.490;2023-05-10T09:13:26;5.68;;;5.47;;
14030;SDS011;7090;49.436;8.490;2023-05-10T09:15:53;7.38;;;7.07;;
14030;SDS011;7090;49.436;8.490;2023-05-10T09:18:19;5.75;;;5.55;;
14030;SDS011;7090;49.436;8.490;2023-05-10T09:20:44;6.07;;;5.82;;
14030;SDS011;7090;49.436;8.490;2023-05-10T09:23:10;8.65;;;5.90;;
14030;SDS011;7090;49.436;8.490;2023-05-10T09:25:35;5.55;;;5.35;;
14030;SDS011;7090;49.436;8.490;2023-05-10T09:28:05;6.30;;;6.00;;
14030;SDS011;7090;49.436;8.490;2023-05-10T09:30:31;5.70;;;5.50;;
14030;SDS011;7090;49.436;8.490;2023-05-10T09:32:57;5.95;;;5.63;;
14030;SDS011;7090;49.436;8.490;2023-05-10T09:35:24;6.95;;;6.65;;
14030;SDS011;7090;49.436;8.490;2023-05-10T09:37:52;7.00;;;6.70;;
14030;SDS011;7090;49.436;8.490;2023-05-10T09:40:25;6.43;;;6.20;;
14030;SDS011;7090;49.436;8.490;2023-05-10T09:45:33;5.75;;;5.55;;
14030;SDS011;7090;49.436;8.490;2023-05-10T09:48:01;6.97;;;6.60;;
14030;SDS011;7090;49.436;8.490;2023-05-10T09:50:27;8.10;;;7.80;;
14030;SDS011;7090;49.436;8.490;2023-05-10T09:52:57;7.47;;;7.18;;
14030;SDS011;7090;49.436;8.490;2023-05-10T09:55:25;7.00;;;6.70;;
14030;SDS011;7090;49.436;8.490;2023-05-10T09:58:03;6.85;;;6.22;;
14030;SDS011;7090;49.436;8.490;2023-05-10T10:00:33;6.65;;;6.38;;
14030;SDS011;7090;49.436;8.490;2023-05-10T10:03:01;6.55;;;6.35;;
14030;SDS011;7090;49.436;8.490;2023-05-10T10:05:28;5.60;;;5.40;;
14030;SDS011;7090;49.436;8.490;2023-05-10T10:07:55;6.53;;;6.32;;
14030;SDS011;7090;49.436;8.490;2023-05-10T10:10:23;5.45;;;5.25;;
14030;SDS011;7090;49.436;8.490;2023-05-10T10:12:50;6.25;;;5.95;;
14030;SDS011;7090;49.436;8.490;2023-05-10T10:15:16;6.07;;;5.78;;
14030;SDS011;7090;49.436;8.490;2023-05-10T10:17:42;5.93;;;5.72;;
14030;SDS011;7090;49.436;8.490;2023-05-10T10:20:08;5.70;;;5.50;;
14030;SDS011;7090;49.436;8.490;2023-05-10T10:22:36;6.10;;;5.90;;
14030;SDS011;7090;49.436;8.490;2023-05-10T10:25:02;5.53;;;5.32;;
14030;SDS011;7090;49.436;8.490;2023-05-10T10:36:05;7.50;;;7.20;;
14030;SDS011;7090;49.436;8.490;2023-05-10T10:41:27;10.40;;;10.00;;
14030;SDS011;7090;49.436;8.490;2023-05-10T10:49:33;9.63;;;9.23;;
14030;SDS011;7090;49.436;8.490;2023-05-10T10:57:26;7.45;;;6.85;;
14030;SDS011;7090;49.436;8.490;2023-05-10T11:02:51;5.80;;;5.60;;
14030;SDS011;7090;49.436;8.490;2023-05-10T11:07:53;6.60;;;5.95;;
14030;SDS011;7090;49.436;8.490;2023-05-10T11:10:20;5.70;;;5.50;;
14030;SDS011;7090;49.436;8.490;2023-05-10T11:12:59;5.50;;;5.30;;
14030;SDS011;7090;49.436;8.490;2023-05-10T11:15:33;6.00;;;5.80;;
14030;SDS011;7090;49.436;8.490;2023-05-10T11:18:39;6.20;;;5.90;;
14030;SDS011;7090;49.436;8.490;2023-05-10T11:20:58;5.40;;;5.20;;
14030;SDS011;7090;49.436;8.490;2023-05-10T11:25:57;5.72;;;5.53;;
14030;SDS011;7090;49.436;8.490;2023-05-10T11:28:25;6.38;;;6.07;;
14030;SDS011;7090;49.436;8.490;2023-05-10T11:30:51;5.80;;;5.60;;
14030;SDS011;7090;49.436;8.490;2023-05-10T11:33:17;5.63;;;5.43;;
14030;SDS011;7090;49.436;8.490;2023-05-10T11:35:44;5.68;;;5.47;;
14030;SDS011;7090;49.436;8.490;2023-05-10T11:38:11;5.97;;;5.78;;
14030;SDS011;7090;49.436;8.490;2023-05-10T11:40:38;5.88;;;5.68;;
14030;SDS011;7090;49.436;8.490;2023-05-10T11:43:04;5.90;;;5.70;;
14030;SDS011;7090;49.436;8.490;2023-05-10T11:45:33;5.93;;;5.72;;
14030;SDS011;7090;49.436;8.490;2023-05-10T11:48:00;6.07;;;5.78;;
14030;SDS011;7090;49.436;8.490;2023-05-10T11:50:26;5.78;;;5.57;;
14030;SDS011;7090;49.436;8.490;2023-05-10T11:52:52;5.10;;;4.90;;
14030;SDS011;7090;49.436;8.490;2023-05-10T11:55:19;5.13;;;4.82;;
14030;SDS011;7090;49.436;8.490;2023-05-10T11:57:45;5.30;;;5.10;;
14030;SDS011;7090;49.436;8.490;2023-05-10T12:00:11;5.50;;;5.30;;
14030;SDS011;7090;49.436;8.490;2023-05-10T12:02:40;5.50;;;5.20;;
14030;SDS011;7090;49.436;8.490;2023-05-10T12:05:05;4.97;;;4.78;;
14030;SDS011;7090;49.436;8.490;2023-05-10T12:07:32;5.10;;;4.90;;
14030;SDS011;7090;49.436;8.490;2023-05-10T12:10:05;4.90;;;4.70;;
14030;SDS011;7090;49.436;8.490;2023-05-10T12:12:35;5.68;;;5.38;;
14030;SDS011;7090;49.436;8.490;2023-05-10T12:17:47;5.25;;;5.05;;
14030;SDS011;7090;49.436;8.490;2023-05-10T12:20:23;6.00;;;5.70;;
14030;SDS011;7090;49.436;8.490;2023-05-10T12:22:50;6.00;;;5.60;;
14030;SDS011;7090;49.436;8.490;2023-05-10T12:25:17;5.82;;;5.60;;
14030;SDS011;7090;49.436;8.490;2023-05-10T12:27:57;6.18;;;5.78;;
14030;SDS011;7090;49.436;8.490;2023-05-10T12:30:26;5.80;;;5.50;;
14030;SDS011;7090;49.436;8.490;2023-05-10T12:32:53;5.80;;;5.50;;
14030;SDS011;7090;49.436;8.490;2023-05-10T12:35:19;5.40;;;5.20;;
14030;SDS011;7090;49.436;8.490;2023-05-10T12:37:49;4.90;;;4.70;;
14030;SDS011;7090;49.436;8.490;2023-05-10T12:40:16;11.07;;;5.72;;
14030;SDS011;7090;49.436;8.490;2023-05-10T12:42:42;5.72;;;5.20;;
14030;SDS011;7090;49.436;8.490;2023-05-10T12:45:09;6.28;;;5.88;;
14030;SDS011;7090;49.436;8.490;2023-05-10T12:47:35;6.05;;;5.75;;
14030;SDS011;7090;49.436;8.490;2023-05-10T12:50:02;5.60;;;5.40;;
14030;SDS011;7090;49.436;8.490;2023-05-10T12:52:29;5.97;;;5.65;;
14030;SDS011;7090;49.436;8.490;2023-05-10T12:54:56;5.70;;;5.50;;
14030;SDS011;7090;49.436;8.490;2023-05-10T12:57:22;5.07;;;4.88;;
14030;SDS011;7090;49.436;8.490;2023-05-10T12:59:47;5.35;;;5.15;;
14030;SDS011;7090;49.436;8.490;2023-05-10T13:02:13;6.82;;;6.32;;
14030;SDS011;7090;49.436;8.490;2023-05-10T13:04:39;6.43;;;6.10;;
14030;SDS011;7090;49.436;8.490;2023-05-10T13:07:08;5.78;;;5.57;;
14030;SDS011;7090;49.436;8.490;2023-05-10T13:09:34;5.50;;;5.30;;
14030;SDS011;7090;49.436;8.490;2023-05-10T13:12:00;6.80;;;6.40;;
14030;SDS011;7090;49.436;8.490;2023-05-10T13:14:26;6.18;;;5.95;;
14030;SDS011;7090;49.436;8.490;2023-05-10T13:16:52;7.30;;;6.25;;
14030;SDS011;7090;49.436;8.490;2023-05-10T13:19:18;6.35;;;6.15;;
14030;SDS011;7090;49.436;8.490;2023-05-10T13:21:44;6.03;;;5.82;;
14030;SDS011;7090;49.436;8.490;2023-05-10T13:24:10;6.60;;;6.32;;
14030;SDS011;7090;49.436;8.490;2023-05-10T13:26:38;6.90;;;6.50;;
14030;SDS011;7090;49.436;8.490;2023-05-10T13:29:05;6.55;;;6.25;;
14030;SDS011;7090;49.436;8.490;2023-05-10T13:31:30;6.13;;;5.93;;
14030;SDS011;7090;49.436;8.490;2023-05-10T13:33:56;6.78;;;6.38;;
14030;SDS011;7090;49.436;8.490;2023-05-10T13:36:21;6.50;;;6.20;;
14030;SDS011;7090;49.436;8.490;2023-05-10T13:38:47;6.47;;;6.18;;
14030;SDS011;7090;49.436;8.490;2023-05-10T13:41:13;5.80;;;5.60;;
14030;SDS011;7090;49.436;8.490;2023-05-10T13:43:39;6.47;;;6.20;;
14030;SDS011;7090;49.436;8.490;2023-05-10T13:46:04;6.70;;;6.20;;
14030;SDS011;7090;49.436;8.490;2023-05-10T13:48:30;6.20;;;6.00;;
14030;SDS011;7090;49.436;8.490;2023-05-10T13:50:56;6.28;;;6.07;;
14030;SDS011;7090;49.436;8.490;2023-05-10T13:53:22;6.47;;;6.20;;
14030;SDS011;7090;49.436;8.490;2023-05-10T13:55:47;7.10;;;6.80;;
14030;SDS011;7090;49.436;8.490;2023-05-10T13:58:13;6.70;;;6.40;;
14030;SDS011;7090;49.436;8.490;2023-05-10T14:00:39;6.95;;;6.65;;
14030;SDS011;7090;49.436;8.490;2023-05-10T14:03:04;7.65;;;6.78;;
14030;SDS011;7090;49.436;8.490;2023-05-10T14:05:31;6.60;;;6.40;;
14030;SDS011;7090;49.436;8.490;2023-05-10T14:07:56;7.70;;;7.10;;
14030;SDS011;7090;49.436;8.490;2023-05-10T14:10:22;6.90;;;6.60;;
14030;SDS011;7090;49.436;8.490;2023-05-10T14:12:49;7.32;;;7.00;;
14030;SDS011;7090;49.436;8.490;2023-05-10T14:15:15;6.85;;;6.55;;
14030;SDS011;7090;49.436;8.490;2023-05-10T14:17:41;6.72;;;6.43;;
14030;SDS011;7090;49.436;8.490;2023-05-10T14:20:06;6.80;;;6.50;;
14030;SDS011;7090;49.436;8.490;2023-05-10T14:22:33;6.80;;;6.60;;
14030;SDS011;7090;49.436;8.490;2023-05-10T14:24:59;6.90;;;6.60;;
14030;SDS011;7090;49.436;8.490;2023-05-10T14:27:25;6.65;;;6.45;;
14030;SDS011;7090;49.436;8.490;2023-05-10T14:29:51;7.50;;;7.00;;
14030;SDS011;7090;49.436;8.490;2023-05-10T14:32:18;6.97;;;6.68;;
14030;SDS011;7090;49.436;8.490;2023-05-10T14:34:43;6.95;;;6.65;;
14030;SDS011;7090;49.436;8.490;2023-05-10T14:37:12;6.75;;;6.45;;
14030;SDS011;7090;49.436;8.490;2023-05-10T14:39:39;7.00;;;6.70;;
14030;SDS011;7090;49.436;8.490;2023-05-10T14:42:05;6.88;;;6.60;;
14030;SDS011;7090;49.436;8.490;2023-05-10T14:44:30;6.70;;;6.45;;
14030;SDS011;7090;49.436;8.490;2023-05-10T14:46:56;7.10;;;6.80;;
14030;SDS011;7090;49.436;8.490;2023-05-10T14:49:22;7.20;;;6.90;;
14030;SDS011;7090;49.436;8.490;2023-05-10T14:51:49;7.65;;;7.35;;
14030;SDS011;7090;49.436;8.490;2023-05-10T14:54:15;6.80;;;6.60;;
14030;SDS011;7090;49.436;8.490;2023-05-10T14:56:40;6.50;;;6.30;;
14030;SDS011;7090;49.436;8.490;2023-05-10T14:59:06;7.03;;;6.72;;
14030;SDS011;7090;49.436;8.490;2023-05-10T15:01:32;7.18;;;6.78;;
14030;SDS011;7090;49.436;8.490;2023-05-10T15:04:00;7.40;;;7.10;;
14030;SDS011;7090;49.436;8.490;2023-05-10T15:06:35;7.97;;;7.60;;
14030;SDS011;7090;49.436;8.490;2023-05-10T15:09:01;8.30;;;7.90;;
14030;SDS011;7090;49.436;8.490;2023-05-10T15:11:31;7.60;;;7.25;;
14030;SDS011;7090;49.436;8.490;2023-05-10T15:13:57;7.55;;;7.15;;
14030;SDS011;7090;49.436;8.490;2023-05-10T15:16:22;7.20;;;6.90;;
14030;SDS011;7090;49.436;8.490;2023-05-10T15:18:48;7.63;;;7.13;;
14030;SDS011;7090;49.436;8.490;2023-05-10T15:21:13;7.95;;;7.45;;
14030;SDS011;7090;49.436;8.490;2023-05-10T15:23:39;7.80;;;7.50;;
14030;SDS011;7090;49.436;8.490;2023-05-10T15:26:05;7.55;;;7.25;;
14030;SDS011;7090;49.436;8.490;2023-05-10T15:28:31;7.35;;;7.05;;
14030;SDS011;7090;49.436;8.490;2023-05-10T15:30:56;7.32;;;7.03;;
14030;SDS011;7090;49.436;8.490;2023-05-10T15:33:22;7.53;;;7.22;;
14030;SDS011;7090;49.436;8.490;2023-05-10T15:35:48;6.95;;;6.68;;
14030;SDS011;7090;49.436;8.490;2023-05-10T15:38:13;6.72;;;6.53;;
14030;SDS011;7090;49.436;8.490;2023-05-10T15:40:39;7.10;;;6.80;;
14030;SDS011;7090;49.436;8.490;2023-05-10T15:43:05;7.10;;;6.80;;
14030;SDS011;7090;49.436;8.490;2023-05-10T15:45:31;6.80;;;6.60;;
14030;SDS011;7090;49.436;8.490;2023-05-10T15:47:57;7.40;;;7.10;;
14030;SDS011;7090;49.436;8.490;2023-05-10T15:50:24;7.20;;;6.90;;
14030;SDS011;7090;49.436;8.490;2023-05-10T15:52:49;7.30;;;6.90;;
14030;SDS011;7090;49.436;8.490;2023-05-10T15:55:15;6.80;;;6.60;;
14030;SDS011;7090;49.436;8.490;2023-05-10T15:57:41;7.03;;;6.75;;
14030;SDS011;7090;49.436;8.490;2023-05-10T16:00:08;7.60;;;7.30;;